createdAt,value
2017-10-17T00:01:12.376Z,67.90
2017-10-17T00:03:40.001Z,66.70
2017-10-17T00:06:07.679Z,66.10
2017-10-17T00:08:35.299Z,66.30
2017-10-17T00:11:02.933Z,66.80
2017-10-17T00:13:30.605Z,66.60
2017-10-17T00:15:58.230Z,67.50
2017-10-17T00:18:25.857Z,67.80
2017-10-17T00:23:34.661Z,68.60
2017-10-17T00:26:02.356Z,69.10
2017-10-17T00:28:29.980Z,69.20
2017-10-17T00:30:58.534Z,68.60
2017-10-17T00:33:27.110Z,68.40
2017-10-17T00:38:38.491Z,67.90
2017-10-17T00:41:06.116Z,68.10
2017-10-17T00:43:33.759Z,68.00
2017-10-17T00:46:01.444Z,68.60
2017-10-17T00:48:29.072Z,69.60
2017-10-17T00:50:56.711Z,69.80
2017-10-17T00:53:24.407Z,69.50
2017-10-17T00:55:52.042Z,70.00
2017-10-17T01:01:04.135Z,70.50
2017-10-17T01:03:31.770Z,69.60
2017-10-17T01:05:59.394Z,69.00
2017-10-17T01:08:27.103Z,68.70
2017-10-17T01:10:54.728Z,69.50
2017-10-17T01:13:22.360Z,70.30
2017-10-17T01:15:50.048Z,69.90
2017-10-17T01:18:17.684Z,69.60
2017-10-17T01:28:59.445Z,69.50
2017-10-17T01:31:27.791Z,69.10
2017-10-17T01:33:55.417Z,68.30
2017-10-17T01:36:23.104Z,67.90
2017-10-17T01:38:54.687Z,67.60
2017-10-17T01:41:22.320Z,68.60
2017-10-17T01:43:50.021Z,68.40
2017-10-17T01:46:18.612Z,68.30
2017-10-17T01:51:32.684Z,68.10
2017-10-17T01:56:48.571Z,69.70
2017-10-17T01:59:18.266Z,69.90
2017-10-17T02:01:45.877Z,69.30
2017-10-17T02:06:41.252Z,69.70
2017-10-17T02:09:08.845Z,69.00
2017-10-17T02:11:36.472Z,69.20
2017-10-17T02:14:04.170Z,70.20
2017-10-17T02:16:31.797Z,70.80
2017-10-17T02:27:01.452Z,68.90
2017-10-17T02:32:07.891Z,69.60
2017-10-17T02:37:04.965Z,70.60
2017-10-17T02:39:33.505Z,70.20
2017-10-17T02:42:02.076Z,69.40
2017-10-17T02:44:29.708Z,69.80
2017-10-17T02:55:03.651Z,70.90
2017-10-17T02:57:31.365Z,70.10
2017-10-17T02:59:58.985Z,69.40
2017-10-17T03:02:34.429Z,69.80
2017-10-17T03:10:10.512Z,71.80
2017-10-17T03:12:38.136Z,70.70
2017-10-17T03:17:36.131Z,69.40
2017-10-17T03:20:03.754Z,69.40
2017-10-17T03:22:31.447Z,69.70
2017-10-17T03:30:29.666Z,69.20
2017-10-17T03:33:00.055Z,69.10
2017-10-17T03:35:27.679Z,69.40
2017-10-17T03:45:53.757Z,70.00
2017-10-17T03:48:21.392Z,69.90
2017-10-17T03:56:21.145Z,70.40
2017-10-17T03:58:48.851Z,70.20
2017-10-17T04:09:22.175Z,69.10
2017-10-17T04:11:50.779Z,69.80
2017-10-17T04:14:24.241Z,69.70
2017-10-17T04:19:41.339Z,69.60
2017-10-17T04:30:26.728Z,68.80
2017-10-17T04:35:36.767Z,68.00
2017-10-17T04:38:04.397Z,69.70
2017-10-17T04:40:32.014Z,69.00
2017-10-17T04:43:11.507Z,69.40
2017-10-17T05:12:51.054Z,68.40
2017-10-17T05:15:18.773Z,68.20
2017-10-17T05:17:49.404Z,68.00
2017-10-17T05:20:17.814Z,69.40
2017-10-17T05:38:59.516Z,70.60
2017-10-17T05:41:27.141Z,70.40
2017-10-17T05:46:47.724Z,71.30
2017-10-17T05:49:16.925Z,70.90
2017-10-17T05:51:44.565Z,70.30
2017-10-17T05:54:12.199Z,70.70
2017-10-17T05:56:39.886Z,70.10
2017-10-17T06:01:35.239Z,70.70
2017-10-17T06:04:02.961Z,70.30
2017-10-17T06:06:30.581Z,71.00
2017-10-17T06:08:58.252Z,72.30
2017-10-17T06:11:25.949Z,72.20
2017-10-17T06:13:53.573Z,72.00
2017-10-17T06:16:21.236Z,72.10
2017-10-17T06:18:48.933Z,72.10
2017-10-17T06:21:16.545Z,72.10
2017-10-17T06:23:44.165Z,72.30
2017-10-17T06:26:11.858Z,72.50
2017-10-17T06:28:39.479Z,72.20
2017-10-17T06:31:07.103Z,71.60
2017-10-17T06:33:34.804Z,73.10
2017-10-17T06:36:02.429Z,73.30
2017-10-17T06:38:30.064Z,74.30
2017-10-17T06:40:57.749Z,73.30
2017-10-17T06:43:25.373Z,73.20
2017-10-17T06:45:52.997Z,72.90
2017-10-17T06:48:21.652Z,75.20
2017-10-17T06:50:49.280Z,72.50
2017-10-17T06:53:16.909Z,70.40
2017-10-17T06:55:44.615Z,69.60
2017-10-17T06:58:12.241Z,67.90
2017-10-17T07:00:39.889Z,67.20
2017-10-17T07:03:08.519Z,66.30
2017-10-17T07:05:37.103Z,67.20
2017-10-17T07:08:04.726Z,66.50
2017-10-17T07:10:32.401Z,64.50
2017-10-17T07:13:00.030Z,63.40
2017-10-17T07:18:06.864Z,60.90
2017-10-17T07:20:34.508Z,59.20
2017-10-17T07:23:02.176Z,55.90
2017-10-17T07:25:29.881Z,56.00
2017-10-17T07:27:57.518Z,55.90
2017-10-17T07:30:25.160Z,55.50
2017-10-17T07:32:52.853Z,54.50
2017-10-17T07:35:20.501Z,55.20
2017-10-17T07:37:48.137Z,54.80
2017-10-17T07:40:15.864Z,53.90
2017-10-17T07:42:43.496Z,55.20
2017-10-17T07:45:11.133Z,54.70
2017-10-17T07:47:38.827Z,52.30
2017-10-17T07:50:06.465Z,54.30
2017-10-17T07:52:34.093Z,53.90
2017-10-17T07:55:01.786Z,52.00
2017-10-17T07:57:29.411Z,50.40
2017-10-17T07:59:57.051Z,48.60
2017-10-17T08:02:24.777Z,49.50
2017-10-17T08:04:52.417Z,49.80
2017-10-17T08:07:20.043Z,50.20
2017-10-17T08:09:47.729Z,50.40
2017-10-17T08:12:15.366Z,50.90
2017-10-17T08:14:43.014Z,48.30
2017-10-17T08:17:10.700Z,48.70
2017-10-17T08:19:38.353Z,47.80
2017-10-17T08:22:05.994Z,47.90
2017-10-17T08:24:36.749Z,46.30
2017-10-17T08:27:05.399Z,47.90
2017-10-17T08:32:14.370Z,48.50
2017-10-17T08:34:42.017Z,48.30
2017-10-17T08:37:09.797Z,47.10
2017-10-17T08:39:37.509Z,45.70
2017-10-17T08:42:05.154Z,46.00
2017-10-17T08:44:32.797Z,44.20
2017-10-17T08:47:00.502Z,42.30
2017-10-17T08:49:28.141Z,43.50
2017-10-17T08:51:55.794Z,43.50
2017-10-17T08:54:23.490Z,42.60
2017-10-17T08:56:51.129Z,43.40
2017-10-17T08:59:18.758Z,43.20
2017-10-17T09:01:47.275Z,43.70
2017-10-17T09:04:14.910Z,42.10
2017-10-17T09:06:42.550Z,42.70
2017-10-17T09:09:10.274Z,42.00
2017-10-17T09:14:05.603Z,41.10
2017-10-17T09:16:34.313Z,41.60
2017-10-17T09:19:01.959Z,41.70
2017-10-17T09:21:29.622Z,42.20
2017-10-17T09:23:58.153Z,41.90
2017-10-17T09:26:25.799Z,41.80
2017-10-17T09:28:53.434Z,40.50
2017-10-17T09:31:21.133Z,41.20
2017-10-17T09:33:48.767Z,39.50
2017-10-17T09:36:16.401Z,40.30
2017-10-17T09:38:44.101Z,36.70
2017-10-17T09:41:11.749Z,37.50
2017-10-17T09:43:39.384Z,37.70
2017-10-17T09:46:07.102Z,36.80
2017-10-17T09:48:34.736Z,38.40
2017-10-17T09:51:02.369Z,37.70
2017-10-17T09:53:30.094Z,36.30
2017-10-17T09:55:57.741Z,37.30
2017-10-17T10:01:06.538Z,36.90
2017-10-17T10:03:34.180Z,38.20
2017-10-17T10:06:01.822Z,38.00
2017-10-17T10:08:29.519Z,37.20
2017-10-17T10:10:58.105Z,36.30
2017-10-17T10:13:25.749Z,36.30
2017-10-17T10:15:53.442Z,32.10
2017-10-17T10:18:21.091Z,32.20
2017-10-17T10:20:48.732Z,33.40
2017-10-17T10:23:16.429Z,32.40
2017-10-17T10:28:26.275Z,32.90
2017-10-17T10:30:53.915Z,31.90
2017-10-17T10:33:22.420Z,32.60
2017-10-17T10:38:30.221Z,31.10
2017-10-17T10:40:58.816Z,32.10
2017-10-17T10:43:26.460Z,32.40
2017-10-17T10:45:55.065Z,33.40
2017-10-17T10:48:22.780Z,31.20
2017-10-17T10:50:50.441Z,33.00
2017-10-17T10:53:18.083Z,31.80
2017-10-17T10:55:45.783Z,30.80
2017-10-17T10:58:13.456Z,30.60
2017-10-17T11:03:21.883Z,27.90
2017-10-17T11:05:49.530Z,28.20
2017-10-17T11:08:17.174Z,26.30
2017-10-17T11:10:44.903Z,26.10
2017-10-17T11:13:12.546Z,26.30
2017-10-17T11:15:40.188Z,27.50
2017-10-17T11:18:07.888Z,28.20
2017-10-17T11:20:35.545Z,27.30
2017-10-17T11:23:03.236Z,26.90
2017-10-17T11:27:58.611Z,26.20
2017-10-17T11:30:26.259Z,26.20
2017-10-17T11:32:53.964Z,26.40
2017-10-17T11:35:21.601Z,27.20
2017-10-17T11:37:49.258Z,27.70
2017-10-17T11:40:16.952Z,25.10
2017-10-17T11:45:18.261Z,25.10
2017-10-17T11:47:45.905Z,25.00
2017-10-17T11:50:13.545Z,24.30
2017-10-17T11:52:41.230Z,24.70
2017-10-17T11:55:09.696Z,25.60
2017-10-17T11:57:37.342Z,24.00
2017-10-17T12:00:05.021Z,25.80
2017-10-17T12:02:32.657Z,25.70
2017-10-17T12:07:27.982Z,24.00
2017-10-17T12:09:55.638Z,25.80
2017-10-17T12:14:51.855Z,26.40
2017-10-17T12:17:19.488Z,27.20
2017-10-17T12:19:47.136Z,27.80
2017-10-17T12:22:14.845Z,28.40
2017-10-17T12:24:42.465Z,26.40
2017-10-17T12:27:10.115Z,28.90
2017-10-17T12:32:16.903Z,28.30
2017-10-17T12:34:44.629Z,28.50
2017-10-17T12:39:40.366Z,28.60
2017-10-17T12:42:08.913Z,27.30
2017-10-17T12:44:36.540Z,28.90
2017-10-17T12:47:04.175Z,25.90
2017-10-17T12:49:31.892Z,27.80
2017-10-17T12:51:59.525Z,29.00
2017-10-17T12:54:27.167Z,28.10
2017-10-17T12:56:54.861Z,27.60
2017-10-17T12:59:22.491Z,28.40
2017-10-17T13:01:50.126Z,28.10
2017-10-17T13:04:17.813Z,26.80
2017-10-17T13:06:45.447Z,26.60
2017-10-17T13:09:13.826Z,27.10
2017-10-17T13:11:41.541Z,27.50
2017-10-17T13:14:09.188Z,26.10
2017-10-17T13:16:36.820Z,27.00
2017-10-17T13:19:04.509Z,26.80
2017-10-17T13:21:32.141Z,26.10
2017-10-17T13:23:59.808Z,25.20
2017-10-17T13:26:27.508Z,26.70
2017-10-17T13:28:55.153Z,27.00
2017-10-17T13:31:22.793Z,26.60
2017-10-17T13:33:50.482Z,27.10
2017-10-17T13:36:19.058Z,27.60
2017-10-17T13:38:46.690Z,29.00
2017-10-17T13:41:14.408Z,27.60
2017-10-17T13:43:42.049Z,27.30
2017-10-17T13:46:10.513Z,27.60
2017-10-17T13:48:39.075Z,27.50
2017-10-17T13:51:06.731Z,26.60
2017-10-17T13:53:34.361Z,27.30
2017-10-17T13:56:02.077Z,26.30
2017-10-17T14:01:10.875Z,26.90
2017-10-17T14:03:38.542Z,24.70
2017-10-17T14:06:06.179Z,25.50
2017-10-17T14:08:33.905Z,26.70
2017-10-17T14:11:01.533Z,26.70
2017-10-17T14:13:29.168Z,28.00
2017-10-17T14:15:56.861Z,27.50
2017-10-17T14:18:24.510Z,25.50
2017-10-17T14:20:52.143Z,25.90
2017-10-17T14:23:19.842Z,26.30
2017-10-17T14:25:47.472Z,26.40
2017-10-17T14:30:43.559Z,27.90
2017-10-17T14:33:11.178Z,28.90
2017-10-17T14:35:38.804Z,29.00
2017-10-17T14:38:07.309Z,28.80
2017-10-17T14:40:34.942Z,28.10
2017-10-17T14:43:02.645Z,30.00
2017-10-17T14:45:30.342Z,31.20
2017-10-17T14:47:57.981Z,31.00
2017-10-17T14:50:25.629Z,29.70
2017-10-17T14:52:54.183Z,32.20
2017-10-17T14:55:22.642Z,33.40
2017-10-17T14:57:50.296Z,31.60
2017-10-17T15:00:18.015Z,32.70
2017-10-17T15:02:45.665Z,34.50
2017-10-17T15:05:13.306Z,34.70
2017-10-17T15:07:41.004Z,34.70
2017-10-17T15:10:08.643Z,34.80
2017-10-17T15:12:36.277Z,35.30
2017-10-17T15:15:03.993Z,35.90
2017-10-17T15:17:31.637Z,37.10
2017-10-17T15:19:59.333Z,36.70
2017-10-17T15:22:26.974Z,36.70
2017-10-17T15:24:55.339Z,36.50
2017-10-17T15:27:22.984Z,36.90
2017-10-17T15:32:29.779Z,38.90
2017-10-17T15:34:57.478Z,38.80
2017-10-17T15:37:25.113Z,39.20
2017-10-17T15:39:52.749Z,39.00
2017-10-17T15:42:20.473Z,38.50
2017-10-17T15:44:48.118Z,39.80
2017-10-17T15:47:15.757Z,40.60
2017-10-17T15:49:44.313Z,40.30
2017-10-17T15:54:39.584Z,42.10
2017-10-17T15:57:07.298Z,42.10
2017-10-17T16:02:02.585Z,41.70
2017-10-17T16:04:30.281Z,42.70
2017-10-17T16:09:25.578Z,42.60
2017-10-17T16:11:53.277Z,42.70
2017-10-17T16:14:21.842Z,42.20
2017-10-17T16:16:49.470Z,43.00
2017-10-17T16:19:17.166Z,43.10
2017-10-17T16:24:12.483Z,43.00
2017-10-17T16:26:40.161Z,43.40
2017-10-17T16:29:07.800Z,44.10
2017-10-17T16:31:35.437Z,43.90
2017-10-17T16:34:03.123Z,43.70
2017-10-17T16:38:58.406Z,45.20
2017-10-17T16:41:26.089Z,45.50
2017-10-17T16:43:53.744Z,44.90
2017-10-17T16:46:22.269Z,44.40
2017-10-17T16:48:49.991Z,43.50
2017-10-17T16:51:17.634Z,44.40
2017-10-17T16:56:24.448Z,45.60
2017-10-17T16:58:52.081Z,46.50
2017-10-17T17:01:19.721Z,46.40
2017-10-17T17:03:47.425Z,47.10
2017-10-17T17:06:15.058Z,49.00
2017-10-17T17:08:42.699Z,49.70
2017-10-17T17:11:10.426Z,50.30
2017-10-17T17:13:38.069Z,49.40
2017-10-17T17:18:34.313Z,50.20
2017-10-17T17:21:01.944Z,51.10
2017-10-17T17:23:29.590Z,50.30
2017-10-17T17:25:57.316Z,51.30
2017-10-17T17:28:25.013Z,51.00
2017-10-17T17:30:52.653Z,51.10
2017-10-17T17:33:20.369Z,50.70
2017-10-17T17:35:48.014Z,49.90
2017-10-17T17:40:56.352Z,49.90
2017-10-17T17:43:23.984Z,49.70
2017-10-17T17:45:51.646Z,50.40
2017-10-17T17:48:19.361Z,50.60
2017-10-17T17:53:14.668Z,51.00
2017-10-17T17:55:42.411Z,51.20
2017-10-17T17:58:10.058Z,50.50
2017-10-17T18:00:37.689Z,50.70
2017-10-17T18:03:05.399Z,51.60
2017-10-17T18:05:33.038Z,51.20
2017-10-17T18:08:00.828Z,51.80
2017-10-17T18:10:29.240Z,51.70
2017-10-17T18:12:56.911Z,52.70
2017-10-17T18:15:24.569Z,54.30
2017-10-17T18:17:52.288Z,53.60
2017-10-17T18:20:20.781Z,53.10
2017-10-17T18:22:49.400Z,53.10
2017-10-17T18:25:17.120Z,53.40
2017-10-17T18:27:44.757Z,52.90
2017-10-17T18:30:12.383Z,53.40
2017-10-17T18:32:40.084Z,53.30
2017-10-17T18:35:07.755Z,53.60
2017-10-17T18:37:35.381Z,53.40
2017-10-17T18:40:03.119Z,52.40
2017-10-17T18:42:30.748Z,52.50
2017-10-17T18:47:26.090Z,52.70
2017-10-17T18:49:53.693Z,53.80
2017-10-17T18:52:21.414Z,53.80
2017-10-17T18:54:50.040Z,53.70
2017-10-17T19:00:01.611Z,54.00
2017-10-17T19:02:35.205Z,53.50
2017-10-17T19:12:54.946Z,53.50
2017-10-17T19:15:23.352Z,54.20
2017-10-17T19:17:52.048Z,53.40
2017-10-17T19:20:21.786Z,53.10
2017-10-17T19:22:50.867Z,53.50
2017-10-17T19:25:21.543Z,54.20
2017-10-17T19:27:49.590Z,54.00
2017-10-17T19:30:17.279Z,54.20
2017-10-17T19:32:44.931Z,54.90
2017-10-17T19:35:12.631Z,55.50
2017-10-17T19:37:40.302Z,55.00
2017-10-17T19:40:07.924Z,55.60
2017-10-17T19:42:35.604Z,55.70
2017-10-17T19:45:03.225Z,56.00
2017-10-17T19:47:30.952Z,55.70
2017-10-17T19:49:58.744Z,55.90
2017-10-17T19:52:26.402Z,55.20
2017-10-17T19:54:57.679Z,55.80
2017-10-17T19:57:27.001Z,56.70
2017-10-17T19:59:54.837Z,56.80
2017-10-17T20:02:29.052Z,57.10
2017-10-17T20:07:27.789Z,56.90
2017-10-17T20:10:03.026Z,59.20
2017-10-17T20:12:30.352Z,60.80
2017-10-17T20:14:58.478Z,59.60
2017-10-17T20:17:26.362Z,59.00
2017-10-17T20:19:54.729Z,59.70
2017-10-17T20:22:22.607Z,59.80
2017-10-17T20:24:50.477Z,59.00
2017-10-17T20:27:18.547Z,58.80
2017-10-17T20:29:46.253Z,59.70
2017-10-17T20:32:14.957Z,59.20
2017-10-17T20:34:42.786Z,59.60
2017-10-17T20:39:49.695Z,58.30
2017-10-17T20:42:17.325Z,58.20
2017-10-17T20:44:47.190Z,58.80
2017-10-17T20:47:16.262Z,58.40
2017-10-17T20:49:44.928Z,58.50
2017-10-17T20:52:14.206Z,58.80
2017-10-17T20:54:43.164Z,58.80
2017-10-17T20:57:10.988Z,59.10
2017-10-17T20:59:40.384Z,58.90
2017-10-17T21:02:08.060Z,58.60
2017-10-17T21:04:35.760Z,59.20
2017-10-17T21:07:06.047Z,60.10
2017-10-17T21:09:33.160Z,60.80
2017-10-17T21:12:00.921Z,65.50
2017-10-17T21:14:29.544Z,62.90
2017-10-17T21:16:57.233Z,62.00
2017-10-17T21:19:24.885Z,63.20
2017-10-17T21:21:52.565Z,64.60
2017-10-17T21:24:20.272Z,64.00
2017-10-17T21:26:47.942Z,64.90
2017-10-17T21:29:15.567Z,63.10
2017-10-17T21:31:43.264Z,64.30
2017-10-17T21:34:10.893Z,63.60
2017-10-17T21:36:38.538Z,60.00
2017-10-17T21:39:06.261Z,60.30
2017-10-17T21:44:13.073Z,61.10
2017-10-17T21:46:40.751Z,61.80
2017-10-17T21:49:08.402Z,62.40
2017-10-17T21:51:36.803Z,63.00
2017-10-17T21:54:04.455Z,63.30
2017-10-17T21:56:32.120Z,63.90
2017-10-17T21:58:59.880Z,65.10
2017-10-17T22:01:28.488Z,64.90
2017-10-17T22:03:56.124Z,64.80
2017-10-17T22:06:23.899Z,66.20
2017-10-17T22:08:51.556Z,65.70
2017-10-17T22:11:19.160Z,65.30
2017-10-17T22:13:47.020Z,64.40
2017-10-17T22:16:14.622Z,64.20
2017-10-17T22:18:42.259Z,64.00
2017-10-17T22:21:09.949Z,66.00
2017-10-17T22:23:37.591Z,65.90
2017-10-17T22:26:05.230Z,65.80
2017-10-17T22:28:32.922Z,66.30
2017-10-17T22:31:00.560Z,66.30
2017-10-17T22:33:28.346Z,66.80
2017-10-17T22:35:56.999Z,67.00
2017-10-17T22:38:24.638Z,66.70
2017-10-17T22:40:52.304Z,67.00
2017-10-17T22:43:20.013Z,68.50
2017-10-17T22:45:48.469Z,68.60
2017-10-17T22:48:16.971Z,68.40
2017-10-17T22:50:44.685Z,67.80
2017-10-17T22:53:12.331Z,67.40
2017-10-17T22:55:39.975Z,67.70
2017-10-17T22:58:07.678Z,67.70
2017-10-17T23:00:35.327Z,67.90
2017-10-17T23:03:02.970Z,68.40
2017-10-17T23:05:30.662Z,69.00
2017-10-17T23:10:37.493Z,69.20
2017-10-17T23:13:05.140Z,68.50
2017-10-17T23:15:32.781Z,67.40
2017-10-17T23:18:12.324Z,66.30
2017-10-17T23:20:39.966Z,66.20
2017-10-17T23:23:07.605Z,66.10
2017-10-17T23:25:35.310Z,65.90
2017-10-17T23:28:02.958Z,66.50
2017-10-17T23:30:31.577Z,66.30
2017-10-17T23:32:59.294Z,67.10
2017-10-17T23:35:26.929Z,67.50
2017-10-17T23:37:54.571Z,67.50
2017-10-17T23:40:22.286Z,67.40
2017-10-17T23:42:49.913Z,67.50
2017-10-17T23:45:18.507Z,68.20
2017-10-17T23:47:46.209Z,68.20
2017-10-17T23:50:13.856Z,67.40
2017-10-17T23:52:41.535Z,65.80
2017-10-17T23:55:09.234Z,64.30
2017-10-17T23:57:36.896Z,63.40
